createdAt,value
2023-04-13T00:00:55.975Z,7.30
2023-04-13T00:03:24.395Z,7.40
2023-04-13T00:05:53.901Z,7.50
2023-04-13T00:08:23.359Z,7.40
2023-04-13T00:10:51.671Z,7.30
2023-04-13T00:13:19.472Z,7.20
2023-04-13T00:15:47.783Z,7.20
2023-04-13T00:18:15.544Z,7.10
2023-04-13T00:20:43.764Z,7.10
2023-04-13T00:23:11.856Z,7.30
2023-04-13T00:25:39.581Z,7.50
2023-04-13T00:28:07.949Z,7.40
2023-04-13T00:30:36.395Z,7.50
2023-04-13T00:33:06.462Z,7.70
2023-04-13T00:35:34.750Z,7.70
2023-04-13T00:38:03.372Z,7.70
2023-04-13T00:40:31.589Z,7.70
2023-04-13T00:43:00.994Z,7.80
2023-04-13T00:45:29.893Z,7.70
2023-04-13T00:47:58.146Z,7.70
2023-04-13T00:50:26.285Z,7.80
2023-04-13T00:52:54.461Z,7.60
2023-04-13T00:55:22.550Z,7.50
2023-04-13T00:57:52.691Z,7.30
2023-04-13T01:00:22.103Z,7.20
2023-04-13T01:02:54.451Z,7.20
2023-04-13T01:05:25.773Z,7.10
2023-04-13T01:08:47.094Z,6.90
2023-04-13T01:11:47.845Z,6.90
2023-04-13T01:14:45.333Z,6.80
2023-04-13T01:17:29.970Z,6.80
2023-04-13T01:20:10.989Z,6.80
2023-04-13T01:22:55.904Z,6.80
2023-04-13T01:25:57.721Z,6.70
2023-04-13T01:28:28.962Z,6.70
2023-04-13T01:31:05.964Z,6.70
2023-04-13T01:33:34.334Z,6.70
2023-04-13T01:36:06.047Z,6.70
2023-04-13T01:38:33.901Z,6.70
2023-04-13T01:41:03.814Z,6.80
2023-04-13T01:43:35.182Z,6.80
2023-04-13T01:46:14.664Z,6.90
2023-04-13T01:49:04.534Z,6.90
2023-04-13T01:51:37.444Z,6.90
2023-04-13T01:54:27.386Z,6.90
2023-04-13T01:57:00.418Z,6.90
2023-04-13T01:59:28.618Z,7.00
2023-04-13T02:01:58.769Z,7.00
2023-04-13T02:04:26.812Z,7.10
2023-04-13T02:06:54.579Z,7.10
2023-04-13T02:09:28.659Z,7.30
2023-04-13T02:11:56.535Z,7.20
2023-04-13T02:14:25.315Z,7.30
2023-04-13T02:16:53.856Z,7.40
2023-04-13T02:19:21.889Z,7.50
2023-04-13T02:21:49.651Z,7.30
2023-04-13T02:24:19.084Z,7.20
2023-04-13T02:26:47.025Z,7.20
2023-04-13T02:29:15.238Z,7.30
2023-04-13T02:31:46.491Z,7.20
2023-04-13T02:34:14.757Z,7.10
2023-04-13T02:36:44.253Z,7.00
2023-04-13T02:39:13.901Z,7.00
2023-04-13T02:41:43.405Z,7.00
2023-04-13T02:44:16.935Z,7.00
2023-04-13T02:46:54.128Z,7.00
2023-04-13T02:49:22.181Z,7.00
2023-04-13T02:51:59.010Z,7.00
2023-04-13T02:54:40.082Z,6.90
2023-04-13T02:57:08.125Z,6.90
2023-04-13T02:59:43.293Z,7.00
2023-04-13T03:02:12.792Z,7.00
2023-04-13T03:04:41.184Z,6.90
2023-04-13T03:07:14.516Z,7.00
2023-04-13T03:09:47.395Z,7.00
2023-04-13T03:12:17.213Z,7.00
2023-04-13T03:14:47.644Z,7.00
2023-04-13T03:17:19.231Z,7.10
2023-04-13T03:19:49.682Z,7.10
2023-04-13T03:22:20.165Z,7.20
2023-04-13T03:24:47.908Z,7.20
2023-04-13T03:27:23.653Z,7.20
2023-04-13T03:29:54.206Z,7.30
2023-04-13T03:32:23.692Z,7.30
2023-04-13T03:34:59.317Z,7.30
2023-04-13T03:37:30.357Z,7.30
2023-04-13T03:40:04.369Z,7.40
2023-04-13T03:42:40.871Z,7.30
2023-04-13T03:45:10.724Z,7.20
2023-04-13T03:47:40.776Z,7.10
2023-04-13T03:50:10.835Z,7.00
2023-04-13T03:52:38.632Z,7.00
2023-04-13T03:55:07.262Z,6.90
2023-04-13T03:57:37.753Z,7.00
2023-04-13T04:00:14.344Z,7.00
2023-04-13T04:02:48.440Z,7.00
2023-04-13T04:05:24.904Z,7.00
2023-04-13T04:08:00.404Z,7.10
2023-04-13T04:10:29.904Z,7.10
2023-04-13T04:12:59.116Z,7.10
2023-04-13T04:15:28.955Z,7.10
2023-04-13T04:18:02.645Z,7.10
2023-04-13T04:20:31.304Z,7.10
2023-04-13T04:23:01.466Z,7.10
2023-04-13T04:25:34.601Z,7.10
2023-04-13T04:28:02.587Z,7.00
2023-04-13T04:30:33.974Z,7.00
2023-04-13T04:33:04.425Z,7.00
2023-04-13T04:35:43.375Z,7.00
2023-04-13T04:38:11.337Z,7.00
2023-04-13T04:40:45.163Z,7.00
2023-04-13T04:43:15.939Z,7.00
2023-04-13T04:45:52.356Z,7.00
2023-04-13T04:48:25.057Z,7.10
2023-04-13T04:50:56.140Z,7.00
2023-04-13T04:53:27.339Z,7.10
2023-04-13T04:55:56.232Z,7.10
2023-04-13T04:58:42.603Z,7.10
2023-04-13T05:01:11.023Z,7.10
2023-04-13T05:03:39.294Z,7.20
2023-04-13T05:06:20.037Z,7.10
2023-04-13T05:08:48.077Z,7.10
2023-04-13T05:11:15.957Z,7.10
2023-04-13T05:13:44.101Z,7.20
2023-04-13T05:16:17.883Z,7.20
2023-04-13T05:18:49.035Z,7.30
2023-04-13T05:21:35.733Z,7.20
2023-04-13T05:24:04.516Z,7.10
2023-04-13T05:26:32.614Z,7.10
2023-04-13T05:29:01.601Z,7.00
2023-04-13T05:31:35.732Z,7.10
2023-04-13T05:34:04.389Z,7.20
2023-04-13T05:36:32.845Z,7.30
2023-04-13T05:39:05.664Z,7.20
2023-04-13T05:41:34.920Z,7.20
2023-04-13T05:44:03.481Z,7.20
2023-04-13T05:46:32.957Z,7.30
2023-04-13T05:49:05.477Z,7.40
2023-04-13T05:51:35.053Z,7.50
2023-04-13T05:54:03.460Z,7.40
2023-04-13T05:56:34.576Z,7.40
2023-04-13T05:59:04.351Z,7.40
2023-04-13T06:01:32.861Z,7.40
2023-04-13T06:04:02.376Z,7.40
2023-04-13T06:06:36.219Z,7.50
2023-04-13T06:09:06.827Z,7.70
2023-04-13T06:11:34.925Z,7.70
2023-04-13T06:14:03.369Z,7.80
2023-04-13T06:16:31.876Z,8.00
2023-04-13T06:19:02.030Z,8.00
2023-04-13T06:21:32.781Z,7.90
2023-04-13T06:24:00.799Z,7.90
2023-04-13T06:26:34.217Z,7.90
2023-04-13T06:29:03.846Z,8.00
2023-04-13T06:31:39.725Z,8.10
2023-04-13T06:34:12.946Z,8.20
2023-04-13T06:36:41.111Z,8.50
2023-04-13T06:39:12.743Z,8.40
2023-04-13T06:41:44.277Z,8.50
2023-04-13T06:44:25.124Z,8.70
2023-04-13T06:46:57.134Z,9.10
2023-04-13T06:49:28.331Z,8.90
2023-04-13T06:51:57.861Z,8.80
2023-04-13T06:54:26.538Z,8.70
2023-04-13T06:57:02.183Z,8.80
2023-04-13T06:59:30.714Z,8.90
2023-04-13T07:01:58.725Z,9.10
2023-04-13T07:04:29.108Z,9.30
2023-04-13T07:06:58.940Z,9.60
2023-04-13T07:09:27.594Z,9.80
2023-04-13T07:11:55.449Z,10.20
2023-04-13T07:14:23.840Z,10.30
2023-04-13T07:16:51.726Z,10.60
2023-04-13T07:19:23.763Z,10.80
2023-04-13T07:21:52.012Z,11.00
2023-04-13T07:24:20.651Z,11.20
2023-04-13T07:26:50.426Z,10.20
2023-04-13T07:29:18.858Z,9.90
2023-04-13T07:31:52.929Z,10.00
2023-04-13T07:34:22.066Z,10.00
2023-04-13T07:36:51.648Z,10.50
2023-04-13T07:39:22.208Z,10.60
2023-04-13T07:41:53.117Z,10.40
2023-04-13T07:44:35.919Z,10.20
2023-04-13T07:47:05.532Z,10.30
2023-04-13T07:49:37.716Z,10.20
2023-04-13T07:52:09.907Z,9.70
2023-04-13T07:54:39.744Z,9.40
2023-04-13T07:57:09.777Z,9.30
2023-04-13T07:59:43.916Z,9.40
2023-04-13T08:02:12.696Z,9.30
2023-04-13T08:04:45.066Z,9.60
2023-04-13T08:07:23.120Z,9.80
2023-04-13T08:09:52.610Z,9.80
2023-04-13T08:12:21.318Z,9.40
2023-04-13T08:14:49.421Z,9.30
2023-04-13T08:17:17.642Z,9.20
2023-04-13T08:19:45.844Z,9.40
2023-04-13T08:22:15.618Z,9.30
2023-04-13T08:24:44.190Z,9.20
2023-04-13T08:27:12.074Z,9.40
2023-04-13T08:29:43.809Z,9.40
2023-04-13T08:32:11.846Z,9.20
2023-04-13T08:34:40.246Z,9.40
2023-04-13T08:37:08.628Z,9.30
2023-04-13T08:39:38.143Z,9.20
2023-04-13T08:42:06.771Z,9.40
2023-04-13T08:44:40.761Z,9.40
2023-04-13T08:47:11.927Z,9.40
2023-04-13T08:49:46.959Z,9.40
2023-04-13T08:52:21.130Z,9.50
2023-04-13T08:54:56.664Z,9.50
2023-04-13T08:57:30.630Z,9.40
2023-04-13T09:00:01.288Z,9.50
2023-04-13T09:02:40.590Z,9.70
2023-04-13T09:05:16.539Z,9.50
2023-04-13T09:07:53.986Z,9.40
2023-04-13T09:10:26.030Z,9.30
2023-04-13T09:12:54.583Z,9.40
2023-04-13T09:15:24.570Z,9.50
2023-04-13T09:18:12.849Z,9.70
2023-04-13T09:21:06.716Z,9.80
2023-04-13T09:23:34.737Z,9.90
2023-04-13T09:26:12.077Z,10.00
2023-04-13T09:28:54.884Z,10.30
2023-04-13T09:31:24.646Z,10.30
2023-04-13T09:33:53.872Z,10.30
2023-04-13T09:36:23.175Z,10.30
2023-04-13T09:38:58.733Z,10.40
2023-04-13T09:41:40.663Z,10.50
2023-04-13T09:44:22.440Z,10.40
2023-04-13T09:47:04.627Z,10.40
2023-04-13T09:49:43.341Z,10.30
2023-04-13T09:52:24.559Z,10.30
2023-04-13T09:54:58.935Z,10.00
2023-04-13T09:57:33.210Z,9.90
2023-04-13T10:00:01.972Z,9.80
2023-04-13T10:02:42.052Z,9.80
2023-04-13T10:05:14.205Z,9.90
2023-04-13T10:07:47.554Z,10.00
2023-04-13T10:10:15.589Z,10.00
2023-04-13T10:12:55.336Z,9.90
2023-04-13T10:15:57.952Z,9.80
2023-04-13T10:18:52.744Z,9.90
2023-04-13T10:21:21.167Z,9.90
2023-04-13T10:23:49.083Z,10.00
2023-04-13T10:26:17.688Z,10.20
2023-04-13T10:28:48.566Z,10.30
2023-04-13T10:31:16.940Z,10.50
2023-04-13T10:33:53.281Z,10.30
2023-04-13T10:36:21.572Z,10.20
2023-04-13T10:38:49.602Z,10.40
2023-04-13T10:41:28.577Z,10.60
2023-04-13T10:44:07.217Z,11.50
2023-04-13T10:46:38.402Z,11.60
2023-04-13T10:49:07.137Z,11.10
2023-04-13T10:51:46.296Z,11.50
2023-04-13T10:54:15.143Z,11.40
2023-04-13T10:56:43.094Z,11.10
2023-04-13T10:59:10.794Z,10.90
2023-04-13T11:01:41.430Z,10.60
2023-04-13T11:04:13.184Z,10.60
2023-04-13T11:06:45.571Z,10.80
2023-04-13T11:09:17.006Z,11.00
2023-04-13T11:11:52.468Z,11.10
2023-04-13T11:14:23.123Z,11.10
2023-04-13T11:16:51.125Z,11.20
2023-04-13T11:19:19.923Z,11.20
2023-04-13T11:21:59.769Z,11.20
2023-04-13T11:24:34.287Z,11.10
2023-04-13T11:27:02.270Z,11.00
2023-04-13T11:29:30.233Z,11.30
2023-04-13T11:31:58.405Z,11.50
2023-04-13T11:34:28.774Z,11.90
2023-04-13T11:37:06.331Z,12.10
2023-04-13T11:39:39.570Z,11.60
2023-04-13T11:42:08.099Z,11.90
2023-04-13T11:44:37.801Z,11.90
2023-04-13T11:47:08.834Z,12.20
2023-04-13T11:49:37.458Z,12.30
2023-04-13T11:52:05.897Z,11.70
2023-04-13T11:54:34.239Z,11.70
2023-04-13T11:57:03.018Z,11.70
2023-04-13T11:59:31.121Z,12.10
2023-04-13T12:02:04.702Z,12.30
2023-04-13T12:04:44.372Z,12.20
2023-04-13T12:07:15.172Z,11.70
2023-04-13T12:17:43.737Z,12.10
2023-04-13T12:20:17.608Z,12.60
2023-04-13T12:22:54.919Z,12.90
2023-04-13T12:25:35.625Z,12.60
2023-04-13T12:28:05.201Z,12.90
2023-04-13T12:30:34.449Z,13.10
2023-04-13T12:33:02.520Z,13.00
2023-04-13T12:35:30.434Z,12.70
2023-04-13T12:37:58.404Z,13.00
2023-04-13T12:40:26.643Z,12.90
2023-04-13T12:42:54.858Z,12.80
2023-04-13T12:45:23.910Z,13.10
2023-04-13T12:47:52.020Z,13.00
2023-04-13T12:50:19.773Z,13.10
2023-04-13T12:52:47.923Z,13.20
2023-04-13T12:55:16.655Z,12.80
2023-04-13T12:57:45.817Z,12.90
2023-04-13T13:00:16.140Z,12.60
2023-04-13T13:02:44.389Z,12.40
2023-04-13T13:05:12.442Z,12.50
2023-04-13T13:07:40.231Z,12.70
2023-04-13T13:10:25.790Z,12.70
2023-04-13T13:12:57.486Z,12.70
2023-04-13T13:15:25.914Z,12.80
2023-04-13T13:17:54.084Z,13.10
2023-04-13T13:20:22.424Z,12.90
2023-04-13T13:22:50.309Z,13.10
2023-04-13T13:25:18.363Z,13.40
2023-04-13T13:30:18.324Z,13.60
2023-04-13T13:32:46.160Z,13.60
2023-04-13T13:35:15.000Z,13.30
2023-04-13T13:37:42.911Z,13.60
2023-04-13T13:40:13.426Z,13.90
2023-04-13T13:45:12.871Z,13.90
2023-04-13T13:47:40.967Z,13.60
2023-04-13T13:50:11.761Z,13.40
2023-04-13T13:52:59.232Z,13.50
2023-04-13T13:55:33.774Z,13.20
2023-04-13T13:58:01.931Z,13.40
2023-04-13T14:00:30.603Z,13.60
2023-04-13T14:02:59.310Z,13.60
2023-04-13T14:05:30.308Z,13.70
2023-04-13T14:07:58.192Z,13.80
2023-04-13T14:10:25.990Z,13.70
2023-04-13T14:12:55.924Z,13.70
2023-04-13T14:15:23.871Z,13.50
2023-04-13T14:18:06.401Z,13.40
2023-04-13T14:20:41.705Z,13.60
2023-04-13T14:23:10.170Z,13.70
2023-04-13T14:25:41.438Z,13.70
2023-04-13T14:28:09.659Z,13.70
2023-04-13T14:30:40.716Z,13.50
2023-04-13T14:33:09.069Z,13.70
2023-04-13T14:35:39.126Z,13.70
2023-04-13T14:38:08.631Z,13.80
2023-04-13T14:40:37.117Z,13.40
2023-04-13T14:43:05.105Z,13.30
2023-04-13T14:45:33.386Z,13.40
2023-04-13T14:48:01.388Z,13.60
2023-04-13T14:50:29.291Z,13.80
2023-04-13T14:52:57.489Z,13.80
2023-04-13T14:55:25.342Z,14.00
2023-04-13T14:57:54.158Z,14.10
2023-04-13T15:00:26.391Z,13.90
2023-04-13T15:02:55.466Z,13.70
2023-04-13T15:05:23.811Z,13.80
2023-04-13T15:07:51.802Z,14.00
2023-04-13T15:10:21.544Z,14.00
2023-04-13T15:12:49.537Z,14.00
2023-04-13T15:15:17.447Z,14.10
2023-04-13T15:17:45.264Z,14.10
2023-04-13T15:20:13.436Z,13.80
2023-04-13T15:22:41.246Z,14.00
2023-04-13T15:25:10.174Z,14.20
2023-04-13T15:27:39.967Z,14.50
2023-04-13T15:30:10.298Z,14.60
2023-04-13T15:32:38.855Z,14.70
2023-04-13T15:35:07.722Z,14.90
2023-04-13T15:37:36.436Z,14.50
2023-04-13T15:40:07.917Z,13.90
2023-04-13T15:42:36.618Z,13.90
2023-04-13T15:45:08.456Z,14.00
2023-04-13T15:47:37.129Z,13.90
2023-04-13T15:50:06.567Z,13.80
2023-04-13T15:52:39.313Z,13.70
2023-04-13T15:55:10.265Z,13.90
2023-04-13T15:57:39.794Z,14.10
2023-04-13T16:00:09.519Z,14.30
2023-04-13T16:02:38.389Z,14.30
2023-04-13T16:05:08.061Z,14.10
2023-04-13T16:07:36.338Z,14.00
2023-04-13T16:10:04.780Z,13.90
2023-04-13T16:12:32.746Z,14.10
2023-04-13T16:15:03.326Z,13.90
2023-04-13T16:17:32.612Z,13.70
2023-04-13T16:20:15.655Z,13.50
2023-04-13T16:22:48.740Z,13.40
2023-04-13T16:25:19.669Z,13.30
2023-04-13T16:27:48.663Z,13.20
2023-04-13T16:30:21.228Z,13.20
2023-04-13T16:32:51.313Z,13.20
2023-04-13T16:35:20.090Z,13.30
2023-04-13T16:37:48.403Z,13.30
2023-04-13T16:40:16.977Z,13.30
2023-04-13T16:42:46.661Z,13.50
2023-04-13T16:45:15.526Z,13.40
2023-04-13T16:47:44.082Z,13.40
2023-04-13T16:50:12.837Z,13.30
2023-04-13T16:52:40.836Z,13.10
2023-04-13T16:55:15.289Z,13.00
2023-04-13T16:57:45.657Z,13.00
2023-04-13T17:00:15.198Z,13.00
2023-04-13T17:02:43.945Z,13.20
2023-04-13T17:05:13.574Z,13.30
2023-04-13T17:07:44.717Z,13.20
2023-04-13T17:10:14.745Z,13.10
2023-04-13T17:12:42.671Z,13.10
2023-04-13T17:15:11.388Z,13.00
2023-04-13T17:17:39.453Z,13.00
2023-04-13T17:20:09.540Z,12.90
2023-04-13T17:22:38.021Z,12.90
2023-04-13T17:25:07.290Z,12.90
2023-04-13T17:27:37.314Z,12.90
2023-04-13T17:30:07.606Z,12.90
2023-04-13T17:32:35.475Z,12.80
2023-04-13T17:35:03.843Z,12.80
2023-04-13T17:37:32.007Z,12.70
2023-04-13T17:40:00.594Z,12.70
2023-04-13T17:42:28.661Z,12.70
2023-04-13T17:44:56.507Z,12.50
2023-04-13T17:47:25.112Z,12.40
2023-04-13T17:49:53.660Z,12.40
2023-04-13T17:52:21.399Z,12.30
2023-04-13T17:54:49.341Z,12.20
2023-04-13T17:57:21.677Z,12.10
2023-04-13T17:59:49.746Z,11.90
2023-04-13T18:02:17.742Z,11.90
2023-04-13T18:04:46.667Z,11.70
2023-04-13T18:07:15.078Z,11.60
2023-04-13T18:09:42.845Z,11.40
2023-04-13T18:12:12.103Z,11.30
2023-04-13T18:14:39.846Z,11.20
2023-04-13T18:17:07.654Z,11.10
2023-04-13T18:19:37.386Z,11.00
2023-04-13T18:22:05.211Z,11.00
2023-04-13T18:24:33.114Z,10.80
2023-04-13T18:27:02.084Z,10.60
2023-04-13T18:29:30.752Z,10.30
2023-04-13T18:31:58.813Z,10.20
2023-04-13T18:34:30.940Z,10.00
2023-04-13T18:36:59.136Z,9.80
2023-04-13T18:39:27.220Z,9.80
2023-04-13T18:41:55.207Z,9.70
2023-04-13T18:44:23.002Z,9.70
2023-04-13T18:46:51.442Z,9.70
2023-04-13T18:49:19.670Z,9.70
2023-04-13T18:51:49.848Z,9.50
2023-04-13T18:54:17.847Z,9.30
2023-04-13T18:56:45.898Z,9.20
2023-04-13T18:59:13.847Z,9.00
2023-04-13T19:01:42.009Z,8.80
2023-04-13T19:04:10.074Z,8.70
2023-04-13T19:06:38.926Z,8.50
2023-04-13T19:09:07.227Z,8.30
2023-04-13T19:11:53.433Z,8.10
2023-04-13T19:14:21.286Z,8.00
2023-04-13T19:16:52.797Z,7.90
2023-04-13T19:19:24.255Z,7.90
2023-04-13T19:21:56.836Z,7.80
2023-04-13T19:24:25.489Z,7.70
2023-04-13T19:26:55.033Z,7.70
2023-04-13T19:29:27.041Z,7.70
2023-04-13T19:31:54.895Z,7.70
2023-04-13T19:34:23.229Z,7.70
2023-04-13T19:36:51.223Z,7.70
2023-04-13T19:39:19.202Z,7.60
2023-04-13T19:41:47.151Z,7.60
2023-04-13T19:44:16.986Z,7.40
2023-04-13T19:46:46.474Z,7.30
2023-04-13T19:49:16.365Z,7.20
2023-04-13T19:51:44.293Z,7.20
2023-04-13T19:54:12.068Z,7.10
2023-04-13T19:56:40.604Z,7.10
2023-04-13T19:59:08.596Z,7.10
2023-04-13T20:01:36.697Z,7.00
2023-04-13T20:04:05.600Z,6.90
2023-04-13T20:06:34.322Z,6.90
2023-04-13T20:09:14.993Z,6.90
2023-04-13T20:11:43.031Z,6.80
2023-04-13T20:14:13.837Z,6.70
2023-04-13T20:16:41.624Z,6.60
2023-04-13T20:19:10.341Z,6.60
2023-04-13T20:21:42.438Z,6.50
2023-04-13T20:24:10.740Z,6.50
2023-04-13T20:26:40.021Z,6.40
2023-04-13T20:29:07.910Z,6.30
2023-04-13T20:31:37.183Z,6.30
2023-04-13T20:34:05.313Z,6.30
2023-04-13T20:36:33.240Z,6.20
2023-04-13T20:39:01.217Z,6.10
2023-04-13T20:41:32.374Z,6.10
2023-04-13T20:44:01.406Z,6.10
2023-04-13T20:46:34.936Z,5.90
2023-04-13T20:49:07.490Z,5.90
2023-04-13T20:51:35.289Z,6.20
2023-04-13T20:54:05.811Z,6.20
2023-04-13T20:56:33.764Z,6.30
2023-04-13T20:59:02.635Z,6.20
2023-04-13T21:01:30.730Z,6.10
2023-04-13T21:04:03.950Z,6.00
2023-04-13T21:06:38.730Z,5.90
2023-04-13T21:09:08.416Z,5.90
2023-04-13T21:11:36.320Z,5.90
2023-04-13T21:14:04.523Z,5.90
2023-04-13T21:16:32.348Z,6.00
2023-04-13T21:18:59.995Z,6.00
2023-04-13T21:21:28.190Z,5.90
2023-04-13T21:23:57.094Z,5.90
2023-04-13T21:26:24.962Z,5.90
2023-04-13T21:28:53.572Z,5.90
2023-04-13T21:31:21.632Z,5.80
2023-04-13T21:33:49.693Z,5.80
2023-04-13T21:38:48.849Z,5.60
2023-04-13T21:41:19.948Z,5.60
2023-04-13T21:43:48.316Z,5.50
2023-04-13T21:46:17.256Z,5.50
2023-04-13T21:48:45.102Z,5.60
2023-04-13T21:51:13.011Z,5.70
2023-04-13T21:53:40.731Z,5.80
2023-04-13T21:56:08.948Z,5.80
2023-04-13T21:58:45.835Z,5.80
2023-04-13T22:01:15.183Z,5.80
2023-04-13T22:03:52.026Z,5.80
2023-04-13T22:06:21.826Z,5.80
2023-04-13T22:08:49.704Z,5.80
2023-04-13T22:11:17.805Z,5.70
2023-04-13T22:13:45.775Z,5.70
2023-04-13T22:16:14.767Z,5.60
2023-04-13T22:18:42.705Z,5.60
2023-04-13T22:21:12.073Z,5.70
2023-04-13T22:23:39.806Z,5.90
2023-04-13T22:26:07.601Z,5.90
2023-04-13T22:28:35.395Z,6.00
2023-04-13T22:31:09.916Z,6.10
2023-04-13T22:33:40.374Z,6.00
2023-04-13T22:36:21.596Z,6.00
2023-04-13T22:38:50.173Z,6.00
2023-04-13T22:41:17.933Z,6.00
2023-04-13T22:43:45.912Z,5.90
2023-04-13T22:46:13.972Z,5.80
2023-04-13T22:48:41.654Z,5.80
2023-04-13T22:51:09.394Z,5.80
2023-04-13T22:53:37.083Z,5.80
2023-04-13T22:56:05.706Z,5.80
2023-04-13T22:58:33.447Z,5.70
2023-04-13T23:01:01.484Z,5.70
2023-04-13T23:03:30.625Z,5.60
2023-04-13T23:05:58.741Z,5.60
2023-04-13T23:08:26.439Z,5.50
2023-04-13T23:10:54.202Z,5.40
2023-04-13T23:13:22.266Z,5.40
2023-04-13T23:15:50.022Z,5.30
2023-04-13T23:18:17.898Z,5.20
2023-04-13T23:20:45.671Z,5.20
2023-04-13T23:23:13.285Z,5.20
2023-04-13T23:25:41.200Z,5.10
2023-04-13T23:28:08.967Z,5.20
2023-04-13T23:30:36.777Z,5.10
2023-04-13T23:33:04.648Z,5.10
2023-04-13T23:35:32.593Z,4.90
2023-04-13T23:38:00.274Z,4.90
2023-04-13T23:40:28.107Z,4.80
2023-04-13T23:42:56.177Z,4.60
2023-04-13T23:45:25.052Z,4.60
2023-04-13T23:47:53.939Z,4.50
2023-04-13T23:50:22.462Z,4.50
2023-04-13T23:52:50.889Z,4.40
2023-04-13T23:55:18.802Z,4.30
2023-04-13T23:57:46.781Z,4.20
